DGTMR EDNH-EDCB
Flight info
| Callsign | DGTMR |
|---|---|
| Flight time | 1h 32m |
| Altitude | 8500 |
| Route | VFR |
| Aircraft | DA42/L-DGV/A |
Departure
| Time | 2026-04-12 12:39 |
|---|---|
| Airport | Bad Wörishofen (Nord) Airfield (EDNH) |
Arrival
| Time | 2026-04-12 14:11 |
|---|---|
| Airport | Ballenstedt Airfield (EDCB) |
| Time | Latitude | Longitude | Altitude | Speed | Heading |
|---|---|---|---|---|---|
| 2026-04-12 12:33 | 48.01610 | 10.61355 | 2034 ft | 1 kts | 201° |
| 2026-04-12 12:33 | 48.01565 | 10.61047 | 2039 ft | 0 kts | 81° |
| 2026-04-12 12:38 | 48.01578 | 10.61136 | 2034 ft | 29 kts | 80° |
| 2026-04-12 12:38 | 48.01638 | 10.61695 | 2033 ft | 76 kts | 80° |
| 2026-04-12 12:38 | 48.01753 | 10.62476 | 2319 ft | 79 kts | 66° |
| 2026-04-12 12:39 | 48.01898 | 10.63285 | 2704 ft | 85 kts | 81° |
| 2026-04-12 12:39 | 48.01953 | 10.64204 | 3053 ft | 86 kts | 64° |
| 2026-04-12 12:39 | 48.02302 | 10.64959 | 3289 ft | 98 kts | 44° |
| 2026-04-12 12:39 | 48.02888 | 10.65537 | 3402 ft | 105 kts | 14° |
| 2026-04-12 12:40 | 48.03617 | 10.65555 | 3532 ft | 109 kts | 357° |
| 2026-04-12 12:40 | 48.04393 | 10.65419 | 3613 ft | 116 kts | 352° |
| 2026-04-12 12:40 | 48.05154 | 10.65409 | 3838 ft | 109 kts | 16° |
| 2026-04-12 12:40 | 48.05850 | 10.65639 | 4131 ft | 98 kts | 7° |
| 2026-04-12 12:41 | 48.06562 | 10.65728 | 4182 ft | 114 kts | 7° |
| 2026-04-12 12:41 | 48.07397 | 10.65837 | 4099 ft | 125 kts | 7° |
| 2026-04-12 12:41 | 48.08286 | 10.65879 | 4006 ft | 130 kts | 2° |
| 2026-04-12 12:41 | 48.09186 | 10.65890 | 4003 ft | 129 kts | 2° |
| 2026-04-12 12:42 | 48.10084 | 10.65901 | 3998 ft | 129 kts | 2° |
| 2026-04-12 12:42 | 48.11551 | 10.65909 | 4003 ft | 127 kts | 2° |
| 2026-04-12 12:42 | 48.12436 | 10.65910 | 4001 ft | 127 kts | 2° |
| 2026-04-12 12:43 | 48.13315 | 10.65889 | 3998 ft | 127 kts | 1° |
| 2026-04-12 12:43 | 48.14197 | 10.65875 | 3999 ft | 127 kts | 1° |
| 2026-04-12 12:43 | 48.15116 | 10.65850 | 3995 ft | 136 kts | 1° |
| 2026-04-12 12:43 | 48.16086 | 10.65827 | 4005 ft | 143 kts | 0° |
| 2026-04-12 12:44 | 48.17099 | 10.65822 | 3991 ft | 145 kts | 1° |
| 2026-04-12 12:44 | 48.18109 | 10.65814 | 3996 ft | 145 kts | 1° |
| 2026-04-12 12:44 | 48.19128 | 10.65807 | 3998 ft | 148 kts | 0° |
| 2026-04-12 12:44 | 48.20161 | 10.65782 | 4000 ft | 150 kts | 0° |
| 2026-04-12 12:45 | 48.21206 | 10.65757 | 4001 ft | 151 kts | 0° |
| 2026-04-12 12:45 | 48.22254 | 10.65728 | 4003 ft | 151 kts | 359° |
| 2026-04-12 12:45 | 48.23308 | 10.65700 | 3994 ft | 152 kts | 0° |
| 2026-04-12 12:45 | 48.24359 | 10.65668 | 4000 ft | 151 kts | 360° |
| 2026-04-12 12:46 | 48.25420 | 10.65634 | 3997 ft | 153 kts | 0° |
| 2026-04-12 12:46 | 48.26480 | 10.65602 | 4005 ft | 153 kts | 359° |
| 2026-04-12 12:46 | 48.27541 | 10.65571 | 4003 ft | 155 kts | 359° |
| 2026-04-12 12:46 | 48.28617 | 10.65540 | 4010 ft | 155 kts | 0° |
| 2026-04-12 12:47 | 48.29692 | 10.65505 | 4003 ft | 153 kts | 359° |
| 2026-04-12 12:47 | 48.30744 | 10.65479 | 3998 ft | 150 kts | 0° |
| 2026-04-12 12:47 | 48.31800 | 10.65453 | 4006 ft | 153 kts | 0° |
| 2026-04-12 12:47 | 48.32865 | 10.65417 | 4000 ft | 152 kts | 360° |
| 2026-04-12 12:48 | 48.33923 | 10.65376 | 4023 ft | 152 kts | 360° |
| 2026-04-12 12:48 | 48.34973 | 10.65336 | 4021 ft | 151 kts | 360° |
| 2026-04-12 12:48 | 48.36020 | 10.65284 | 4018 ft | 150 kts | 360° |
| 2026-04-12 12:48 | 48.37048 | 10.65244 | 4022 ft | 146 kts | 359° |
| 2026-04-12 12:49 | 48.38075 | 10.65198 | 3964 ft | 150 kts | 360° |
| 2026-04-12 12:49 | 48.39142 | 10.65164 | 3889 ft | 156 kts | 360° |
| 2026-04-12 12:49 | 48.40241 | 10.65137 | 3806 ft | 158 kts | 0° |
| 2026-04-12 12:49 | 48.41325 | 10.65113 | 3714 ft | 159 kts | 360° |
| 2026-04-12 12:50 | 48.42437 | 10.65088 | 3592 ft | 160 kts | 359° |
| 2026-04-12 12:50 | 48.43554 | 10.65018 | 3533 ft | 159 kts | 358° |
| 2026-04-12 12:50 | 48.44643 | 10.64936 | 3525 ft | 154 kts | 358° |
| 2026-04-12 12:50 | 48.45706 | 10.64860 | 3526 ft | 152 kts | 358° |
| 2026-04-12 12:51 | 48.46761 | 10.64771 | 3533 ft | 152 kts | 358° |
| 2026-04-12 12:51 | 48.47813 | 10.64674 | 3529 ft | 151 kts | 358° |
| 2026-04-12 12:51 | 48.48859 | 10.64579 | 3529 ft | 150 kts | 358° |
| 2026-04-12 12:51 | 48.49904 | 10.64492 | 3531 ft | 151 kts | 358° |
| 2026-04-12 12:52 | 48.50953 | 10.64411 | 3537 ft | 151 kts | 358° |
| 2026-04-12 12:52 | 48.52008 | 10.64337 | 3538 ft | 151 kts | 358° |
| 2026-04-12 12:52 | 48.53057 | 10.64258 | 3536 ft | 150 kts | 358° |
| 2026-04-12 12:52 | 48.54103 | 10.64173 | 3545 ft | 151 kts | 358° |
| 2026-04-12 12:53 | 48.55161 | 10.64101 | 3546 ft | 152 kts | 359° |
| 2026-04-12 12:53 | 48.56224 | 10.64041 | 3532 ft | 152 kts | 358° |
| 2026-04-12 12:53 | 48.57266 | 10.63967 | 3533 ft | 151 kts | 358° |
| 2026-04-12 12:53 | 48.58316 | 10.63882 | 3536 ft | 151 kts | 358° |
| 2026-04-12 12:54 | 48.59367 | 10.63813 | 3547 ft | 151 kts | 359° |
| 2026-04-12 12:54 | 48.60424 | 10.63783 | 3542 ft | 152 kts | 360° |
| 2026-04-12 12:54 | 48.61479 | 10.63763 | 3540 ft | 152 kts | 360° |
| 2026-04-12 12:54 | 48.62534 | 10.63741 | 3540 ft | 151 kts | 360° |
| 2026-04-12 12:55 | 48.63589 | 10.63723 | 3538 ft | 151 kts | 0° |
| 2026-04-12 12:55 | 48.64637 | 10.63700 | 3535 ft | 149 kts | 0° |
| 2026-04-12 12:55 | 48.65675 | 10.63672 | 3539 ft | 149 kts | 359° |
| 2026-04-12 12:55 | 48.66709 | 10.63656 | 3546 ft | 151 kts | 0° |
| 2026-04-12 12:56 | 48.67783 | 10.63648 | 3543 ft | 154 kts | 0° |
| 2026-04-12 12:56 | 48.68850 | 10.63625 | 3537 ft | 153 kts | 0° |
| 2026-04-12 12:56 | 48.69908 | 10.63593 | 3539 ft | 152 kts | 360° |
| 2026-04-12 12:56 | 48.70959 | 10.63577 | 3538 ft | 150 kts | 0° |
| 2026-04-12 12:57 | 48.71993 | 10.63562 | 3539 ft | 147 kts | 0° |
| 2026-04-12 12:57 | 48.73011 | 10.63541 | 3539 ft | 146 kts | 0° |
| 2026-04-12 12:57 | 48.74030 | 10.63514 | 3543 ft | 147 kts | 360° |
| 2026-04-12 12:57 | 48.75043 | 10.63487 | 3542 ft | 147 kts | 360° |
| 2026-04-12 12:58 | 48.76068 | 10.63461 | 3535 ft | 147 kts | 360° |
| 2026-04-12 12:58 | 48.77059 | 10.63441 | 3668 ft | 139 kts | 0° |
| 2026-04-12 12:58 | 48.78016 | 10.63424 | 3796 ft | 138 kts | 0° |
| 2026-04-12 12:58 | 48.78971 | 10.63401 | 3921 ft | 136 kts | 0° |
| 2026-04-12 12:59 | 48.79917 | 10.63376 | 4051 ft | 136 kts | 0° |
| 2026-04-12 12:59 | 48.80861 | 10.63345 | 4178 ft | 136 kts | 360° |
| 2026-04-12 12:59 | 48.81809 | 10.63317 | 4307 ft | 136 kts | 360° |
| 2026-04-12 12:59 | 48.82757 | 10.63296 | 4436 ft | 136 kts | 0° |
| 2026-04-12 13:00 | 48.83701 | 10.63277 | 4552 ft | 137 kts | 0° |
| 2026-04-12 13:00 | 48.84681 | 10.63258 | 4552 ft | 143 kts | 0° |
| 2026-04-12 13:00 | 48.85689 | 10.63232 | 4550 ft | 146 kts | 360° |
| 2026-04-12 13:00 | 48.86717 | 10.63213 | 4558 ft | 149 kts | 0° |
| 2026-04-12 13:01 | 48.87765 | 10.63197 | 4556 ft | 152 kts | 360° |
| 2026-04-12 13:01 | 48.88808 | 10.63187 | 4556 ft | 152 kts | 360° |
| 2026-04-12 13:01 | 48.89864 | 10.63177 | 4560 ft | 152 kts | 0° |
| 2026-04-12 13:01 | 48.90924 | 10.63196 | 4560 ft | 152 kts | 2° |
| 2026-04-12 13:02 | 48.91986 | 10.63218 | 4558 ft | 153 kts | 1° |
| 2026-04-12 13:02 | 48.93050 | 10.63230 | 4561 ft | 153 kts | 1° |
| 2026-04-12 13:02 | 48.94124 | 10.63246 | 4560 ft | 155 kts | 1° |
| 2026-04-12 13:02 | 48.95197 | 10.63265 | 4563 ft | 154 kts | 1° |
| 2026-04-12 13:03 | 48.96268 | 10.63283 | 4558 ft | 153 kts | 1° |
| 2026-04-12 13:03 | 48.97330 | 10.63301 | 4561 ft | 152 kts | 1° |
| 2026-04-12 13:03 | 48.98393 | 10.63318 | 4559 ft | 152 kts | 1° |
| 2026-04-12 13:03 | 48.99452 | 10.63338 | 4558 ft | 153 kts | 1° |
| 2026-04-12 13:04 | 49.00515 | 10.63357 | 4559 ft | 152 kts | 1° |
| 2026-04-12 13:04 | 49.01576 | 10.63370 | 4565 ft | 153 kts | 1° |
| 2026-04-12 13:04 | 49.02630 | 10.63380 | 4559 ft | 154 kts | 1° |
| 2026-04-12 13:04 | 49.03699 | 10.63388 | 4570 ft | 155 kts | 1° |
| 2026-04-12 13:05 | 49.04778 | 10.63406 | 4565 ft | 155 kts | 1° |
| 2026-04-12 13:05 | 49.05863 | 10.63425 | 4566 ft | 156 kts | 1° |
| 2026-04-12 13:05 | 49.06958 | 10.63445 | 4513 ft | 159 kts | 1° |
| 2026-04-12 13:05 | 49.08082 | 10.63475 | 4408 ft | 163 kts | 1° |
| 2026-04-12 13:06 | 49.09218 | 10.63520 | 4303 ft | 163 kts | 1° |
| 2026-04-12 13:06 | 49.10352 | 10.63566 | 4196 ft | 163 kts | 1° |
| 2026-04-12 13:06 | 49.11494 | 10.63611 | 4097 ft | 165 kts | 1° |
| 2026-04-12 13:06 | 49.12642 | 10.63658 | 4068 ft | 163 kts | 1° |
| 2026-04-12 13:07 | 49.13758 | 10.63720 | 4068 ft | 159 kts | 2° |
| 2026-04-12 13:07 | 49.14861 | 10.63778 | 4069 ft | 158 kts | 1° |
| 2026-04-12 13:07 | 49.15954 | 10.63833 | 4059 ft | 157 kts | 2° |
| 2026-04-12 13:07 | 49.17044 | 10.63889 | 4059 ft | 156 kts | 2° |
| 2026-04-12 13:08 | 49.18123 | 10.63949 | 4063 ft | 155 kts | 2° |
| 2026-04-12 13:08 | 49.19118 | 10.64004 | 4065 ft | 153 kts | 2° |
| 2026-04-12 13:08 | 49.20183 | 10.64059 | 4061 ft | 154 kts | 2° |
| 2026-04-12 13:08 | 49.21248 | 10.64118 | 4064 ft | 153 kts | 1° |
| 2026-04-12 13:09 | 49.22309 | 10.64179 | 4032 ft | 152 kts | 2° |
| 2026-04-12 13:09 | 49.23367 | 10.64240 | 4033 ft | 152 kts | 2° |
| 2026-04-12 13:09 | 49.24414 | 10.64296 | 4037 ft | 153 kts | 2° |
| 2026-04-12 13:09 | 49.25479 | 10.64354 | 4036 ft | 153 kts | 1° |
| 2026-04-12 13:10 | 49.26546 | 10.64419 | 4032 ft | 153 kts | 2° |
| 2026-04-12 13:10 | 49.27608 | 10.64483 | 4035 ft | 153 kts | 2° |
| 2026-04-12 13:10 | 49.28679 | 10.64542 | 4040 ft | 153 kts | 2° |
| 2026-04-12 13:10 | 49.29755 | 10.64593 | 4001 ft | 157 kts | 2° |
| 2026-04-12 13:11 | 49.30839 | 10.64654 | 3995 ft | 154 kts | 2° |
| 2026-04-12 13:11 | 49.31910 | 10.64716 | 3999 ft | 154 kts | 2° |
| 2026-04-12 13:11 | 49.32977 | 10.64781 | 3993 ft | 153 kts | 3° |
| 2026-04-12 13:11 | 49.34035 | 10.64868 | 3997 ft | 152 kts | 3° |
| 2026-04-12 13:12 | 49.35076 | 10.64957 | 3998 ft | 152 kts | 3° |
| 2026-04-12 13:12 | 49.36140 | 10.65050 | 4002 ft | 152 kts | 3° |
| 2026-04-12 13:12 | 49.37199 | 10.65140 | 4000 ft | 153 kts | 4° |
| 2026-04-12 13:12 | 49.38268 | 10.65219 | 3995 ft | 155 kts | 2° |
| 2026-04-12 13:13 | 49.39325 | 10.65303 | 3994 ft | 154 kts | 3° |
| 2026-04-12 13:13 | 49.40395 | 10.65385 | 3994 ft | 154 kts | 2° |
| 2026-04-12 13:13 | 49.41467 | 10.65467 | 3996 ft | 155 kts | 2° |
| 2026-04-12 13:13 | 49.42540 | 10.65548 | 3993 ft | 154 kts | 2° |
| 2026-04-12 13:14 | 49.43578 | 10.65631 | 3992 ft | 153 kts | 3° |
| 2026-04-12 13:14 | 49.44635 | 10.65718 | 3992 ft | 151 kts | 2° |
| 2026-04-12 13:14 | 49.45685 | 10.65809 | 4002 ft | 151 kts | 3° |
| 2026-04-12 13:14 | 49.46741 | 10.65899 | 4002 ft | 153 kts | 3° |
| 2026-04-12 13:15 | 49.47806 | 10.65988 | 3997 ft | 153 kts | 2° |
| 2026-04-12 13:15 | 49.48871 | 10.66080 | 3998 ft | 154 kts | 3° |
| 2026-04-12 13:15 | 49.49946 | 10.66171 | 3996 ft | 154 kts | 3° |
| 2026-04-12 13:15 | 49.51014 | 10.66260 | 3996 ft | 154 kts | 3° |
| 2026-04-12 13:16 | 49.52085 | 10.66347 | 3997 ft | 154 kts | 3° |
| 2026-04-12 13:16 | 49.53141 | 10.66434 | 3995 ft | 153 kts | 3° |
| 2026-04-12 13:16 | 49.54204 | 10.66525 | 3993 ft | 153 kts | 3° |
| 2026-04-12 13:16 | 49.55267 | 10.66616 | 3993 ft | 153 kts | 3° |
| 2026-04-12 13:17 | 49.56329 | 10.66707 | 3993 ft | 152 kts | 3° |
| 2026-04-12 13:17 | 49.57390 | 10.66797 | 3996 ft | 153 kts | 3° |
| 2026-04-12 13:17 | 49.58456 | 10.66889 | 3995 ft | 154 kts | 3° |
| 2026-04-12 13:17 | 49.59528 | 10.66981 | 4018 ft | 153 kts | 3° |
| 2026-04-12 13:18 | 49.60573 | 10.67070 | 4122 ft | 148 kts | 3° |
| 2026-04-12 13:18 | 49.61594 | 10.67160 | 4226 ft | 146 kts | 3° |
| 2026-04-12 13:18 | 49.63606 | 10.67356 | 4432 ft | 144 kts | 3° |
| 2026-04-12 13:19 | 49.64615 | 10.67455 | 4484 ft | 147 kts | 3° |
| 2026-04-12 13:19 | 49.65652 | 10.67553 | 4485 ft | 151 kts | 3° |
| 2026-04-12 13:19 | 49.66712 | 10.67658 | 4492 ft | 154 kts | 3° |
| 2026-04-12 13:19 | 49.67779 | 10.67767 | 4492 ft | 154 kts | 3° |
| 2026-04-12 13:20 | 49.68850 | 10.67875 | 4494 ft | 155 kts | 3° |
| 2026-04-12 13:20 | 49.69923 | 10.67983 | 4493 ft | 155 kts | 3° |
| 2026-04-12 13:20 | 49.71005 | 10.68090 | 4493 ft | 157 kts | 3° |
| 2026-04-12 13:20 | 49.72098 | 10.68201 | 4487 ft | 158 kts | 3° |
| 2026-04-12 13:21 | 49.73198 | 10.68314 | 4494 ft | 158 kts | 3° |
| 2026-04-12 13:21 | 49.74299 | 10.68430 | 4494 ft | 159 kts | 3° |
| 2026-04-12 13:21 | 49.75389 | 10.68541 | 4494 ft | 159 kts | 3° |
| 2026-04-12 13:21 | 49.76497 | 10.68652 | 4494 ft | 159 kts | 3° |
| 2026-04-12 13:22 | 49.77603 | 10.68763 | 4491 ft | 159 kts | 3° |
| 2026-04-12 13:22 | 49.78706 | 10.68875 | 4490 ft | 159 kts | 3° |
| 2026-04-12 13:22 | 49.79806 | 10.68989 | 4490 ft | 158 kts | 3° |
| 2026-04-12 13:22 | 49.80908 | 10.69103 | 4491 ft | 159 kts | 2° |
| 2026-04-12 13:23 | 49.82012 | 10.69216 | 4495 ft | 159 kts | 3° |
| 2026-04-12 13:23 | 49.83119 | 10.69325 | 4495 ft | 159 kts | 3° |
| 2026-04-12 13:23 | 49.84227 | 10.69439 | 4494 ft | 159 kts | 3° |
| 2026-04-12 13:23 | 49.85332 | 10.69559 | 4494 ft | 159 kts | 4° |
| 2026-04-12 13:24 | 49.86434 | 10.69724 | 4493 ft | 159 kts | 5° |
| 2026-04-12 13:24 | 49.87536 | 10.69908 | 4493 ft | 159 kts | 6° |
| 2026-04-12 13:24 | 49.88635 | 10.70106 | 4493 ft | 159 kts | 6° |
| 2026-04-12 13:24 | 49.89732 | 10.70306 | 4493 ft | 158 kts | 6° |
| 2026-04-12 13:25 | 49.90827 | 10.70509 | 4493 ft | 158 kts | 6° |
| 2026-04-12 13:25 | 49.91917 | 10.70714 | 4492 ft | 158 kts | 6° |
| 2026-04-12 13:25 | 49.93011 | 10.70913 | 4496 ft | 158 kts | 6° |
| 2026-04-12 13:25 | 49.94111 | 10.71096 | 4497 ft | 160 kts | 6° |
| 2026-04-12 13:26 | 49.95202 | 10.71275 | 4491 ft | 160 kts | 6° |
| 2026-04-12 13:26 | 49.96311 | 10.71464 | 4491 ft | 160 kts | 7° |
| 2026-04-12 13:26 | 49.97417 | 10.71698 | 4491 ft | 161 kts | 8° |
| 2026-04-12 13:26 | 49.98527 | 10.71940 | 4491 ft | 161 kts | 8° |
| 2026-04-12 13:27 | 49.99633 | 10.72182 | 4494 ft | 161 kts | 8° |
| 2026-04-12 13:27 | 50.00743 | 10.72424 | 4494 ft | 161 kts | 8° |
| 2026-04-12 13:27 | 50.01849 | 10.72666 | 4495 ft | 160 kts | 8° |
| 2026-04-12 13:27 | 50.02955 | 10.72908 | 4494 ft | 161 kts | 8° |
| 2026-04-12 13:28 | 50.03687 | 10.73068 | 4492 ft | 161 kts | 8° |
| 2026-04-12 13:28 | 50.05171 | 10.73393 | 4491 ft | 161 kts | 8° |
| 2026-04-12 13:28 | 50.06277 | 10.73634 | 4491 ft | 161 kts | 8° |
| 2026-04-12 13:28 | 50.07010 | 10.73794 | 4490 ft | 161 kts | 8° |
| 2026-04-12 13:29 | 50.08116 | 10.74036 | 4492 ft | 160 kts | 8° |
| 2026-04-12 13:29 | 50.09220 | 10.74278 | 4491 ft | 160 kts | 8° |
| 2026-04-12 13:29 | 50.10325 | 10.74520 | 4491 ft | 161 kts | 8° |
| 2026-04-12 13:29 | 50.11433 | 10.74763 | 4501 ft | 160 kts | 8° |
| 2026-04-12 13:30 | 50.12512 | 10.75001 | 4639 ft | 154 kts | 8° |
| 2026-04-12 13:30 | 50.13561 | 10.75239 | 4770 ft | 151 kts | 8° |
| 2026-04-12 13:30 | 50.14595 | 10.75481 | 4899 ft | 150 kts | 8° |
| 2026-04-12 13:30 | 50.15624 | 10.75727 | 5025 ft | 149 kts | 8° |
| 2026-04-12 13:31 | 50.16650 | 10.75978 | 5156 ft | 149 kts | 8° |
| 2026-04-12 13:31 | 50.17679 | 10.76237 | 5281 ft | 150 kts | 8° |
| 2026-04-12 13:31 | 50.18705 | 10.76505 | 5408 ft | 150 kts | 8° |
| 2026-04-12 13:31 | 50.19723 | 10.76783 | 5498 ft | 153 kts | 8° |
| 2026-04-12 13:32 | 50.20794 | 10.77070 | 5497 ft | 159 kts | 8° |
| 2026-04-12 13:32 | 50.21898 | 10.77361 | 5498 ft | 162 kts | 8° |
| 2026-04-12 13:32 | 50.23021 | 10.77652 | 5498 ft | 164 kts | 8° |
| 2026-04-12 13:32 | 50.24148 | 10.77950 | 5503 ft | 165 kts | 8° |
| 2026-04-12 13:33 | 50.25291 | 10.78259 | 5499 ft | 167 kts | 8° |
| 2026-04-12 13:33 | 50.26440 | 10.78564 | 5499 ft | 168 kts | 8° |
| 2026-04-12 13:33 | 50.27593 | 10.78868 | 5497 ft | 168 kts | 7° |
| 2026-04-12 13:33 | 50.28741 | 10.79173 | 5497 ft | 167 kts | 8° |
| 2026-04-12 13:34 | 50.29886 | 10.79476 | 5499 ft | 167 kts | 8° |
| 2026-04-12 13:34 | 50.31014 | 10.79781 | 5499 ft | 166 kts | 8° |
| 2026-04-12 13:34 | 50.32155 | 10.80084 | 5500 ft | 166 kts | 8° |
| 2026-04-12 13:34 | 50.33298 | 10.80384 | 5501 ft | 166 kts | 8° |
| 2026-04-12 13:35 | 50.34441 | 10.80682 | 5499 ft | 167 kts | 8° |
| 2026-04-12 13:35 | 50.35588 | 10.80988 | 5500 ft | 167 kts | 8° |
| 2026-04-12 13:35 | 50.36736 | 10.81298 | 5499 ft | 168 kts | 8° |
| 2026-04-12 13:35 | 50.37889 | 10.81604 | 5498 ft | 168 kts | 8° |
| 2026-04-12 13:36 | 50.39024 | 10.81899 | 5594 ft | 162 kts | 8° |
| 2026-04-12 13:36 | 50.40120 | 10.82183 | 5723 ft | 159 kts | 8° |
| 2026-04-12 13:36 | 50.41200 | 10.82469 | 5850 ft | 157 kts | 7° |
| 2026-04-12 13:36 | 50.42271 | 10.82763 | 5980 ft | 156 kts | 8° |
| 2026-04-12 13:37 | 50.43339 | 10.83050 | 6113 ft | 156 kts | 8° |
| 2026-04-12 13:37 | 50.44404 | 10.83335 | 6245 ft | 155 kts | 8° |
| 2026-04-12 13:37 | 50.45471 | 10.83621 | 6376 ft | 156 kts | 8° |
| 2026-04-12 13:37 | 50.46540 | 10.83910 | 6501 ft | 157 kts | 8° |
| 2026-04-12 13:38 | 50.47644 | 10.84211 | 6500 ft | 164 kts | 8° |
| 2026-04-12 13:38 | 50.48781 | 10.84517 | 6502 ft | 168 kts | 8° |
| 2026-04-12 13:38 | 50.49942 | 10.84828 | 6498 ft | 169 kts | 8° |
| 2026-04-12 13:38 | 50.51108 | 10.85134 | 6502 ft | 171 kts | 8° |
| 2026-04-12 13:39 | 50.52286 | 10.85451 | 6503 ft | 172 kts | 8° |
| 2026-04-12 13:39 | 50.53474 | 10.85769 | 6502 ft | 173 kts | 8° |
| 2026-04-12 13:39 | 50.54643 | 10.86085 | 6503 ft | 173 kts | 8° |
| 2026-04-12 13:39 | 50.55828 | 10.86402 | 6501 ft | 172 kts | 8° |
| 2026-04-12 13:40 | 50.57008 | 10.86725 | 6503 ft | 172 kts | 8° |
| 2026-04-12 13:40 | 50.58183 | 10.87041 | 6508 ft | 172 kts | 8° |
| 2026-04-12 13:40 | 50.59364 | 10.87364 | 6503 ft | 173 kts | 8° |
| 2026-04-12 13:40 | 50.60545 | 10.87685 | 6507 ft | 172 kts | 8° |
| 2026-04-12 13:41 | 50.61727 | 10.88002 | 6504 ft | 172 kts | 8° |
| 2026-04-12 13:41 | 50.62909 | 10.88320 | 6503 ft | 172 kts | 8° |
| 2026-04-12 13:41 | 50.64090 | 10.88640 | 6501 ft | 172 kts | 8° |
| 2026-04-12 13:41 | 50.65249 | 10.88958 | 6615 ft | 164 kts | 8° |
| 2026-04-12 13:42 | 50.66349 | 10.89261 | 6783 ft | 157 kts | 8° |
| 2026-04-12 13:42 | 50.67400 | 10.89547 | 6953 ft | 153 kts | 8° |
| 2026-04-12 13:42 | 50.68448 | 10.89841 | 7126 ft | 153 kts | 8° |
| 2026-04-12 13:42 | 50.69493 | 10.90136 | 7297 ft | 152 kts | 8° |
| 2026-04-12 13:43 | 50.70531 | 10.90436 | 7474 ft | 152 kts | 8° |
| 2026-04-12 13:43 | 50.71598 | 10.90751 | 7499 ft | 161 kts | 8° |
| 2026-04-12 13:43 | 50.72723 | 10.91078 | 7501 ft | 167 kts | 8° |
| 2026-04-12 13:43 | 50.73876 | 10.91411 | 7502 ft | 170 kts | 8° |
| 2026-04-12 13:44 | 50.75054 | 10.91752 | 7502 ft | 172 kts | 8° |
| 2026-04-12 13:44 | 50.76238 | 10.92091 | 7506 ft | 173 kts | 8° |
| 2026-04-12 13:44 | 50.77429 | 10.92435 | 7508 ft | 175 kts | 8° |
| 2026-04-12 13:44 | 50.78628 | 10.92782 | 7504 ft | 175 kts | 8° |
| 2026-04-12 13:45 | 50.79831 | 10.93127 | 7505 ft | 176 kts | 8° |
| 2026-04-12 13:45 | 50.81021 | 10.93470 | 7504 ft | 176 kts | 8° |
| 2026-04-12 13:45 | 50.82223 | 10.93817 | 7508 ft | 175 kts | 8° |
| 2026-04-12 13:45 | 50.83423 | 10.94157 | 7507 ft | 175 kts | 8° |
| 2026-04-12 13:46 | 50.84623 | 10.94497 | 7507 ft | 175 kts | 8° |
| 2026-04-12 13:46 | 50.85822 | 10.94835 | 7507 ft | 175 kts | 8° |
| 2026-04-12 13:46 | 50.86988 | 10.95164 | 7508 ft | 175 kts | 8° |
| 2026-04-12 13:46 | 50.88147 | 10.95492 | 7509 ft | 174 kts | 8° |
| 2026-04-12 13:47 | 50.89308 | 10.95820 | 7511 ft | 175 kts | 8° |
| 2026-04-12 13:47 | 50.90472 | 10.96146 | 7512 ft | 175 kts | 8° |
| 2026-04-12 13:47 | 50.91676 | 10.96484 | 7513 ft | 176 kts | 8° |
| 2026-04-12 13:47 | 50.92848 | 10.96812 | 7512 ft | 176 kts | 8° |
| 2026-04-12 13:48 | 50.94052 | 10.97150 | 7510 ft | 176 kts | 8° |
| 2026-04-12 13:48 | 50.95254 | 10.97489 | 7510 ft | 176 kts | 8° |
| 2026-04-12 13:48 | 50.96420 | 10.97818 | 7511 ft | 175 kts | 8° |
| 2026-04-12 13:48 | 50.97622 | 10.98157 | 7510 ft | 175 kts | 8° |
| 2026-04-12 13:49 | 50.98823 | 10.98497 | 7512 ft | 175 kts | 8° |
| 2026-04-12 13:49 | 51.00028 | 10.98837 | 7428 ft | 178 kts | 8° |
| 2026-04-12 13:49 | 51.01235 | 10.99175 | 7281 ft | 178 kts | 8° |
| 2026-04-12 13:49 | 51.02456 | 10.99514 | 7167 ft | 177 kts | 8° |
| 2026-04-12 13:50 | 51.03651 | 10.99843 | 7122 ft | 172 kts | 8° |
| 2026-04-12 13:50 | 51.04824 | 11.00169 | 7072 ft | 170 kts | 8° |
| 2026-04-12 13:50 | 51.05984 | 11.00487 | 7027 ft | 168 kts | 8° |
| 2026-04-12 13:50 | 51.07137 | 11.00803 | 6976 ft | 168 kts | 8° |
| 2026-04-12 13:51 | 51.08288 | 11.01115 | 6917 ft | 168 kts | 8° |
| 2026-04-12 13:51 | 51.09457 | 11.01430 | 6742 ft | 171 kts | 8° |
| 2026-04-12 13:51 | 51.10638 | 11.01747 | 6570 ft | 173 kts | 8° |
| 2026-04-12 13:51 | 51.11822 | 11.02071 | 6394 ft | 173 kts | 9° |
| 2026-04-12 13:52 | 51.13003 | 11.02411 | 6210 ft | 172 kts | 9° |
| 2026-04-12 13:52 | 51.14180 | 11.02754 | 6026 ft | 172 kts | 9° |
| 2026-04-12 13:52 | 51.15358 | 11.03101 | 5845 ft | 172 kts | 9° |
| 2026-04-12 13:52 | 51.16533 | 11.03452 | 5662 ft | 171 kts | 9° |
| 2026-04-12 13:53 | 51.17703 | 11.03794 | 5482 ft | 170 kts | 9° |
| 2026-04-12 13:53 | 51.18861 | 11.04123 | 5300 ft | 168 kts | 9° |
| 2026-04-12 13:53 | 51.19998 | 11.04519 | 5121 ft | 166 kts | 13° |
| 2026-04-12 13:53 | 51.21109 | 11.05015 | 4944 ft | 165 kts | 15° |
| 2026-04-12 13:54 | 51.22208 | 11.05529 | 4763 ft | 164 kts | 15° |
| 2026-04-12 13:54 | 51.23301 | 11.06036 | 4576 ft | 163 kts | 15° |
| 2026-04-12 13:54 | 51.24390 | 11.06529 | 4392 ft | 163 kts | 15° |
| 2026-04-12 13:54 | 51.25480 | 11.07019 | 4208 ft | 162 kts | 15° |
| 2026-04-12 13:55 | 51.26566 | 11.07500 | 4026 ft | 162 kts | 15° |
| 2026-04-12 13:55 | 51.27638 | 11.07965 | 3846 ft | 162 kts | 15° |
| 2026-04-12 13:55 | 51.28720 | 11.08428 | 3694 ft | 159 kts | 15° |
| 2026-04-12 13:55 | 51.29782 | 11.08895 | 3568 ft | 157 kts | 15° |
| 2026-04-12 13:56 | 51.30827 | 11.09354 | 3437 ft | 155 kts | 15° |
| 2026-04-12 13:56 | 51.31860 | 11.09802 | 3313 ft | 153 kts | 15° |
| 2026-04-12 13:56 | 51.32892 | 11.10246 | 3182 ft | 153 kts | 15° |
| 2026-04-12 13:56 | 51.33926 | 11.10684 | 3049 ft | 154 kts | 15° |
| 2026-04-12 13:57 | 51.34965 | 11.11118 | 2919 ft | 154 kts | 15° |
| 2026-04-12 13:57 | 51.36006 | 11.11544 | 2795 ft | 154 kts | 15° |
| 2026-04-12 13:57 | 51.37020 | 11.11948 | 2787 ft | 147 kts | 15° |
| 2026-04-12 13:57 | 51.37999 | 11.12336 | 2793 ft | 143 kts | 15° |
| 2026-04-12 13:58 | 51.38960 | 11.12719 | 2793 ft | 142 kts | 15° |
| 2026-04-12 13:58 | 51.39914 | 11.13107 | 2798 ft | 141 kts | 15° |
| 2026-04-12 13:58 | 51.40858 | 11.13506 | 2793 ft | 140 kts | 16° |
| 2026-04-12 13:58 | 51.41804 | 11.13909 | 2793 ft | 141 kts | 16° |
| 2026-04-12 13:59 | 51.42750 | 11.14313 | 2793 ft | 141 kts | 16° |
| 2026-04-12 13:59 | 51.43694 | 11.14720 | 2795 ft | 140 kts | 16° |
| 2026-04-12 13:59 | 51.44638 | 11.15131 | 2798 ft | 140 kts | 16° |
| 2026-04-12 13:59 | 51.45571 | 11.15533 | 2793 ft | 141 kts | 16° |
| 2026-04-12 14:00 | 51.46517 | 11.15937 | 2797 ft | 140 kts | 16° |
| 2026-04-12 14:00 | 51.47456 | 11.16330 | 2797 ft | 139 kts | 16° |
| 2026-04-12 14:00 | 51.48392 | 11.16730 | 2791 ft | 139 kts | 16° |
| 2026-04-12 14:00 | 51.49330 | 11.17134 | 2795 ft | 140 kts | 16° |
| 2026-04-12 14:01 | 51.50272 | 11.17540 | 2794 ft | 140 kts | 16° |
| 2026-04-12 14:01 | 51.51219 | 11.17950 | 2791 ft | 141 kts | 16° |
| 2026-04-12 14:01 | 51.52153 | 11.18369 | 2791 ft | 139 kts | 16° |
| 2026-04-12 14:01 | 51.53083 | 11.18797 | 2794 ft | 139 kts | 16° |
| 2026-04-12 14:02 | 51.54011 | 11.19220 | 2788 ft | 138 kts | 16° |
| 2026-04-12 14:02 | 51.54920 | 11.19636 | 2794 ft | 137 kts | 16° |
| 2026-04-12 14:02 | 51.55848 | 11.20061 | 2796 ft | 137 kts | 17° |
| 2026-04-12 14:02 | 51.56768 | 11.20479 | 2795 ft | 137 kts | 16° |
| 2026-04-12 14:03 | 51.57670 | 11.20898 | 2797 ft | 136 kts | 17° |
| 2026-04-12 14:03 | 51.58583 | 11.21321 | 2800 ft | 137 kts | 16° |
| 2026-04-12 14:03 | 51.59506 | 11.21749 | 2798 ft | 139 kts | 16° |
| 2026-04-12 14:03 | 51.60434 | 11.22178 | 2803 ft | 139 kts | 17° |
| 2026-04-12 14:04 | 51.61362 | 11.22609 | 2798 ft | 139 kts | 16° |
| 2026-04-12 14:04 | 51.62292 | 11.23039 | 2798 ft | 139 kts | 16° |
| 2026-04-12 14:04 | 51.63221 | 11.23467 | 2798 ft | 139 kts | 16° |
| 2026-04-12 14:04 | 51.64155 | 11.23897 | 2799 ft | 139 kts | 16° |
| 2026-04-12 14:05 | 51.65082 | 11.24353 | 2757 ft | 141 kts | 18° |
| 2026-04-12 14:05 | 51.66006 | 11.24834 | 2663 ft | 138 kts | 18° |
| 2026-04-12 14:05 | 51.67830 | 11.25729 | 2465 ft | 136 kts | 17° |
| 2026-04-12 14:06 | 51.68740 | 11.26172 | 2356 ft | 137 kts | 17° |
| 2026-04-12 14:06 | 51.69652 | 11.26616 | 2254 ft | 136 kts | 17° |
| 2026-04-12 14:06 | 51.70561 | 11.27053 | 2148 ft | 136 kts | 17° |
| 2026-04-12 14:06 | 51.71457 | 11.27487 | 2040 ft | 132 kts | 17° |
| 2026-04-12 14:07 | 51.72360 | 11.27797 | 1865 ft | 132 kts | 2° |
| 2026-04-12 14:07 | 51.73241 | 11.27754 | 1835 ft | 122 kts | 358° |
| 2026-04-12 14:07 | 51.74092 | 11.27699 | 1708 ft | 123 kts | 359° |
| 2026-04-12 14:07 | 51.74903 | 11.27540 | 1743 ft | 107 kts | 341° |
| 2026-04-12 14:08 | 51.75452 | 11.26794 | 1678 ft | 100 kts | 303° |
| 2026-04-12 14:08 | 51.75689 | 11.25785 | 1596 ft | 100 kts | 288° |
| 2026-04-12 14:08 | 51.75859 | 11.24715 | 1610 ft | 97 kts | 286° |
| 2026-04-12 14:08 | 51.75963 | 11.23623 | 1557 ft | 96 kts | 278° |
| 2026-04-12 14:09 | 51.75997 | 11.22573 | 1556 ft | 89 kts | 277° |
| 2026-04-12 14:09 | 51.75985 | 11.21607 | 1534 ft | 87 kts | 276° |
| 2026-04-12 14:09 | 51.76002 | 11.20620 | 1426 ft | 88 kts | 278° |
| 2026-04-12 14:09 | 51.75832 | 11.19666 | 1247 ft | 95 kts | 233° |
| 2026-04-12 14:10 | 51.75209 | 11.19393 | 1063 ft | 96 kts | 169° |
| 2026-04-12 14:10 | 51.74683 | 11.19939 | 935 ft | 87 kts | 121° |
| 2026-04-12 14:10 | 51.74548 | 11.20843 | 788 ft | 82 kts | 90° |
| 2026-04-12 14:10 | 51.74554 | 11.21752 | 621 ft | 82 kts | 85° |
| 2026-04-12 14:11 | 51.74575 | 11.22611 | 508 ft | 61 kts | 83° |
| 2026-04-12 14:11 | 51.74589 | 11.23081 | 506 ft | 18 kts | 90° |
| 2026-04-12 14:11 | 51.74594 | 11.23247 | 504 ft | 18 kts | 84° |
| 2026-04-12 14:11 | 51.74597 | 11.23437 | 509 ft | 11 kts | 89° |
| 2026-04-12 14:12 | 51.74560 | 11.23490 | 511 ft | 14 kts | 203° |
| 2026-04-12 14:12 | 51.74480 | 11.23420 | 516 ft | 11 kts | 210° |
| 2026-04-12 14:12 | 51.74433 | 11.23379 | 521 ft | 7 kts | 200° |
| 2026-04-12 14:12 | 51.74411 | 11.23388 | 524 ft | 1 kts | 243° |
| 2026-04-12 14:13 | 51.74411 | 11.23386 | 524 ft | 0 kts | 287° |